createdAt,value
2023-04-12T00:00:54.034Z,1079.00
2023-04-12T00:01:54.168Z,1082.00
2023-04-12T00:02:54.426Z,1078.00
2023-04-12T00:03:54.451Z,1081.00
2023-04-12T00:04:54.367Z,1083.00
2023-04-12T00:05:54.370Z,1084.00
2023-04-12T00:06:54.438Z,1077.00
2023-04-12T00:07:54.487Z,1080.00
2023-04-12T00:08:54.535Z,1087.00
2023-04-12T00:09:54.590Z,1089.00
2023-04-12T00:10:54.645Z,1081.00
2023-04-12T00:11:54.684Z,1075.00
2023-04-12T00:12:54.801Z,1079.00
2023-04-12T00:13:55.055Z,1082.00
2023-04-12T00:14:54.892Z,1096.00
2023-04-12T00:15:55.035Z,1088.00
2023-04-12T00:16:55.034Z,1085.00
2023-04-12T00:17:55.175Z,1083.00
2023-04-12T00:18:55.570Z,1072.00
2023-04-12T00:19:55.227Z,1073.00
2023-04-12T00:20:55.283Z,1081.00
2023-04-12T00:21:55.349Z,1073.00
2023-04-12T00:22:55.426Z,1071.00
2023-04-12T00:23:55.723Z,1077.00
2023-04-12T00:24:55.507Z,1081.00
2023-04-12T00:25:55.577Z,1077.00
2023-04-12T00:26:55.645Z,1072.00
2023-04-12T00:27:55.701Z,1081.00
2023-04-12T00:28:55.779Z,1084.00
2023-04-12T00:29:55.847Z,1072.00
2023-04-12T00:30:55.909Z,1069.00
2023-04-12T00:31:55.960Z,1068.00
2023-04-12T00:32:56.065Z,1070.00
2023-04-12T00:33:56.502Z,1087.00
2023-04-12T00:34:56.157Z,1072.00
2023-04-12T00:35:56.207Z,1072.00
2023-04-12T00:36:56.270Z,1069.00
2023-04-12T00:37:56.340Z,1062.00
2023-04-12T00:38:56.381Z,1069.00
2023-04-12T00:39:56.435Z,1067.00
2023-04-12T00:40:56.531Z,1069.00
2023-04-12T00:41:56.537Z,1060.00
2023-04-12T00:42:56.640Z,1069.00
2023-04-12T00:43:57.226Z,1079.00
2023-04-12T00:44:56.734Z,1061.00
2023-04-12T00:45:56.815Z,1070.00
2023-04-12T00:46:56.916Z,1061.00
2023-04-12T00:47:56.924Z,1067.00
2023-04-12T00:48:56.987Z,1065.00
2023-04-12T00:49:57.086Z,1066.00
2023-04-12T00:50:57.103Z,1066.00
2023-04-12T00:51:57.160Z,1067.00
2023-04-12T00:52:57.226Z,1056.00
2023-04-12T00:53:57.544Z,1059.00
2023-04-12T00:54:57.339Z,1072.00
2023-04-12T00:55:57.395Z,1062.00
2023-04-12T00:56:57.471Z,1061.00
2023-04-12T00:57:57.543Z,1066.00
2023-04-12T00:58:57.565Z,1067.00
2023-04-12T00:59:57.629Z,1064.00
2023-04-12T01:00:57.735Z,1074.00
2023-04-12T01:01:57.817Z,1066.00
2023-04-12T01:02:57.906Z,1057.00
2023-04-12T01:03:58.178Z,1059.00
2023-04-12T01:04:57.910Z,1069.00
2023-04-12T01:05:57.975Z,1054.00
2023-04-12T01:06:58.028Z,1063.00
2023-04-12T01:07:58.084Z,1057.00
2023-04-12T01:08:58.121Z,1064.00
2023-04-12T01:09:58.215Z,1055.00
2023-04-12T01:10:58.262Z,1049.00
2023-04-12T01:11:58.346Z,1067.00
2023-04-12T01:12:58.377Z,1064.00
2023-04-12T01:13:58.555Z,1058.00
2023-04-12T01:14:58.508Z,1052.00
2023-04-12T01:15:58.576Z,1062.00
2023-04-12T01:16:58.658Z,1062.00
2023-04-12T01:17:58.848Z,1055.00
2023-04-12T01:18:58.768Z,1055.00
2023-04-12T01:19:58.825Z,1050.00
2023-04-12T01:20:58.895Z,1058.00
2023-04-12T01:21:58.951Z,1060.00
2023-04-12T01:22:59.008Z,1063.00
2023-04-12T01:23:59.311Z,1047.00
2023-04-12T01:24:59.115Z,1040.00
2023-04-12T01:25:59.266Z,1058.00
2023-04-12T01:26:59.245Z,1057.00
2023-04-12T01:27:59.286Z,1060.00
2023-04-12T01:28:59.340Z,1064.00
2023-04-12T01:29:59.421Z,1060.00
2023-04-12T01:30:59.572Z,1056.00
2023-04-12T01:31:59.611Z,1042.00
2023-04-12T01:32:59.608Z,1060.00
2023-04-12T01:33:59.813Z,1069.00
2023-04-12T01:34:59.716Z,1044.00
2023-04-12T01:35:59.854Z,1057.00
2023-04-12T01:36:59.810Z,1061.00
2023-04-12T01:37:59.868Z,1062.00
2023-04-12T01:38:59.910Z,1054.00
2023-04-12T01:39:59.991Z,1052.00
2023-04-12T01:41:00.062Z,1041.00
2023-04-12T01:42:00.118Z,1054.00
2023-04-12T01:43:00.213Z,1051.00
2023-04-12T01:44:00.222Z,1063.00
2023-04-12T01:45:00.295Z,1041.00
2023-04-12T01:46:00.412Z,1032.00
2023-04-12T01:47:00.550Z,1055.00
2023-04-12T01:48:00.518Z,1051.00
2023-04-12T01:49:00.569Z,1036.00
2023-04-12T01:50:00.617Z,1039.00
2023-04-12T01:51:00.686Z,1043.00
2023-04-12T01:52:00.752Z,1050.00
2023-04-12T01:53:00.841Z,1049.00
2023-04-12T01:54:00.846Z,1037.00
2023-04-12T01:55:00.921Z,1034.00
2023-04-12T01:56:00.982Z,1037.00
2023-04-12T01:57:01.087Z,1040.00
2023-04-12T01:58:01.099Z,1047.00
2023-04-12T01:59:01.204Z,1043.00
2023-04-12T02:00:01.294Z,1039.00
2023-04-12T02:01:01.351Z,1036.00
2023-04-12T02:02:01.433Z,1053.00
2023-04-12T02:03:01.573Z,1050.00
2023-04-12T02:04:01.910Z,1040.00
2023-04-12T02:05:01.624Z,1043.00
2023-04-12T02:06:01.611Z,1038.00
2023-04-12T02:07:01.634Z,1038.00
2023-04-12T02:08:01.724Z,1032.00
2023-04-12T02:09:01.792Z,1041.00
2023-04-12T02:10:01.889Z,1039.00
2023-04-12T02:11:01.927Z,1045.00
2023-04-12T02:12:02.010Z,1069.00
2023-04-12T02:13:02.076Z,1034.00
2023-04-12T02:14:02.100Z,1024.00
2023-04-12T02:15:02.177Z,1040.00
2023-04-12T02:16:02.297Z,1027.00
2023-04-12T02:17:02.518Z,1025.00
2023-04-12T02:18:02.430Z,1032.00
2023-04-12T02:19:02.980Z,1043.00
2023-04-12T02:20:02.514Z,1030.00
2023-04-12T02:21:02.557Z,1032.00
2023-04-12T02:22:02.577Z,1037.00
2023-04-12T02:23:02.659Z,1036.00
2023-04-12T02:24:02.756Z,1029.00
2023-04-12T02:25:02.821Z,1025.00
2023-04-12T02:26:02.817Z,1027.00
2023-04-12T02:27:02.882Z,1022.00
2023-04-12T02:28:02.948Z,1034.00
2023-04-12T02:29:03.051Z,1039.00
2023-04-12T02:30:03.103Z,1034.00
2023-04-12T02:31:03.198Z,1032.00
2023-04-12T02:32:03.162Z,1038.00
2023-04-12T02:33:03.341Z,1038.00
2023-04-12T02:34:03.279Z,1042.00
2023-04-12T02:35:03.340Z,1029.00
2023-04-12T02:36:03.437Z,1039.00
2023-04-12T02:37:03.453Z,1028.00
2023-04-12T02:38:03.529Z,1027.00
2023-04-12T02:39:03.568Z,1024.00
2023-04-12T02:40:03.600Z,1031.00
2023-04-12T02:41:03.730Z,1022.00
2023-04-12T02:42:03.690Z,1038.00
2023-04-12T02:43:03.729Z,1022.00
2023-04-12T02:44:03.776Z,1030.00
2023-04-12T02:45:03.835Z,1021.00
2023-04-12T02:46:03.972Z,1021.00
2023-04-12T02:47:03.937Z,1029.00
2023-04-12T02:48:04.060Z,1007.00
2023-04-12T02:49:04.047Z,1027.00
2023-04-12T02:50:04.090Z,1044.00
2023-04-12T02:51:04.158Z,1031.00
2023-04-12T02:52:04.205Z,1024.00
2023-04-12T02:53:04.284Z,1033.00
2023-04-12T02:54:04.332Z,1012.00
2023-04-12T02:55:04.405Z,1038.00
2023-04-12T02:56:06.200Z,1027.00
2023-04-12T02:57:04.466Z,1026.00
2023-04-12T02:58:04.561Z,1021.00
2023-04-12T02:59:04.626Z,1026.00
2023-04-12T03:00:04.681Z,1019.00
2023-04-12T03:01:04.851Z,1015.00
2023-04-12T03:02:04.921Z,1018.00
2023-04-12T03:03:04.949Z,1016.00
2023-04-12T03:04:04.923Z,1028.00
2023-04-12T03:05:04.910Z,1018.00
2023-04-12T03:06:05.001Z,1019.00
2023-04-12T03:07:04.983Z,1026.00
2023-04-12T03:08:05.046Z,1031.00
2023-04-12T03:09:05.050Z,1027.00
2023-04-12T03:10:05.053Z,1030.00
2023-04-12T03:11:05.058Z,1028.00
2023-04-12T03:12:05.051Z,1025.00
2023-04-12T03:13:05.152Z,1022.00
2023-04-12T03:14:05.136Z,1021.00
2023-04-12T03:15:05.152Z,1033.00
2023-04-12T03:16:05.270Z,1015.00
2023-04-12T03:17:05.229Z,1017.00
2023-04-12T03:18:05.285Z,1016.00
2023-04-12T03:19:05.338Z,1025.00
2023-04-12T03:20:05.350Z,1015.00
2023-04-12T03:21:05.439Z,1009.00
2023-04-12T03:22:05.503Z,1018.00
2023-04-12T03:23:05.561Z,1012.00
2023-04-12T03:24:05.546Z,1011.00
2023-04-12T03:25:05.669Z,1020.00
2023-04-12T03:26:05.682Z,1011.00
2023-04-12T03:27:05.682Z,1014.00
2023-04-12T03:28:05.682Z,1011.00
2023-04-12T03:29:05.745Z,1018.00
2023-04-12T03:30:05.810Z,1025.00
2023-04-12T03:31:05.850Z,1008.00
2023-04-12T03:32:05.876Z,1023.00
2023-04-12T03:33:05.859Z,1001.00
2023-04-12T03:34:05.873Z,1008.00
2023-04-12T03:35:05.876Z,1012.00
2023-04-12T03:36:05.901Z,998.00
2023-04-12T03:37:05.955Z,1008.00
2023-04-12T03:38:05.960Z,1009.00
2023-04-12T03:39:05.974Z,1014.00
2023-04-12T03:40:05.966Z,1009.00
2023-04-12T03:41:05.977Z,1024.00
2023-04-12T03:42:05.997Z,1008.00
2023-04-12T03:43:05.989Z,1015.00
2023-04-12T03:44:05.997Z,1019.00
2023-04-12T03:45:06.005Z,1012.00
2023-04-12T03:46:06.029Z,1016.00
2023-04-12T03:47:06.108Z,999.00
2023-04-12T03:48:06.062Z,1012.00
2023-04-12T03:49:06.082Z,1008.00
2023-04-12T03:50:11.395Z,1028.00
2023-04-12T03:51:07.072Z,1028.00
2023-04-12T03:52:06.095Z,1011.00
2023-04-12T03:53:06.062Z,1013.00
2023-04-12T03:54:06.077Z,1014.00
2023-04-12T03:55:06.052Z,1015.00
2023-04-12T03:56:06.008Z,998.00
2023-04-12T03:57:06.093Z,1015.00
2023-04-12T03:58:06.028Z,1008.00
2023-04-12T03:59:06.039Z,1007.00
2023-04-12T04:00:06.033Z,1006.00
2023-04-12T04:01:06.112Z,1002.00
2023-04-12T04:02:06.119Z,1007.00
2023-04-12T04:03:06.118Z,1003.00
2023-04-12T04:04:06.182Z,1000.00
2023-04-12T04:05:06.104Z,1001.00
2023-04-12T04:06:06.102Z,985.00
2023-04-12T04:07:06.099Z,994.00
2023-04-12T04:08:06.069Z,984.00
2023-04-12T04:09:06.066Z,980.00
2023-04-12T04:10:06.074Z,964.00
2023-04-12T04:11:07.787Z,945.00
2023-04-12T04:12:06.049Z,949.00
2023-04-12T04:13:06.058Z,944.00
2023-04-12T04:14:06.036Z,916.00
2023-04-12T04:15:06.055Z,911.00
2023-04-12T04:16:06.051Z,901.00
2023-04-12T04:17:06.022Z,895.00
2023-04-12T04:18:05.985Z,897.00
2023-04-12T04:19:06.000Z,889.00
2023-04-12T04:20:06.029Z,883.00
2023-04-12T04:21:05.984Z,858.00
2023-04-12T04:22:05.990Z,855.00
2023-04-12T04:23:05.974Z,836.00
2023-04-12T04:24:06.506Z,836.00
2023-04-12T04:25:05.984Z,840.00
2023-04-12T04:26:05.945Z,840.00
2023-04-12T04:27:05.980Z,821.00
2023-04-12T04:28:05.964Z,832.00
2023-04-12T04:29:05.938Z,826.00
2023-04-12T04:30:05.917Z,806.00
2023-04-12T04:31:05.912Z,807.00
2023-04-12T04:32:05.919Z,788.00
2023-04-12T04:33:05.958Z,809.00
2023-04-12T04:34:05.872Z,791.00
2023-04-12T04:35:05.920Z,797.00
2023-04-12T04:36:05.892Z,815.00
2023-04-12T04:37:05.856Z,808.00
2023-04-12T04:38:05.897Z,806.00
2023-04-12T04:39:05.834Z,814.00
2023-04-12T04:40:05.884Z,785.00
2023-04-12T04:41:05.856Z,799.00
2023-04-12T04:42:05.839Z,816.00
2023-04-12T04:43:08.152Z,818.00
2023-04-12T04:44:05.906Z,819.00
2023-04-12T04:45:05.947Z,808.00
2023-04-12T04:46:06.037Z,810.00
2023-04-12T04:47:06.093Z,811.00
2023-04-12T04:48:06.183Z,810.00
2023-04-12T04:49:06.148Z,816.00
2023-04-12T04:50:06.138Z,800.00
2023-04-12T04:51:06.108Z,819.00
2023-04-12T04:52:06.121Z,809.00
2023-04-12T04:53:06.106Z,814.00
2023-04-12T04:54:06.115Z,829.00
2023-04-12T04:55:07.946Z,813.00
2023-04-12T04:56:06.100Z,820.00
2023-04-12T04:57:06.082Z,837.00
2023-04-12T04:58:06.140Z,825.00
2023-04-12T04:59:06.089Z,827.00
2023-04-12T05:00:06.090Z,827.00
2023-04-12T05:01:06.072Z,841.00
2023-04-12T05:02:06.186Z,827.00
2023-04-12T05:03:06.160Z,824.00
2023-04-12T05:04:06.204Z,830.00
2023-04-12T05:05:06.042Z,831.00
2023-04-12T05:06:06.077Z,827.00
2023-04-12T05:07:06.049Z,826.00
2023-04-12T05:08:06.034Z,814.00
2023-04-12T05:09:06.041Z,821.00
2023-04-12T05:10:05.996Z,829.00
2023-04-12T05:11:06.007Z,835.00
2023-04-12T05:12:05.984Z,826.00
2023-04-12T05:13:06.004Z,848.00
2023-04-12T05:14:05.996Z,827.00
2023-04-12T05:15:11.752Z,812.00
2023-04-12T05:16:06.962Z,813.00
2023-04-12T05:17:06.137Z,818.00
2023-04-12T05:18:06.020Z,826.00
2023-04-12T05:19:05.929Z,830.00
2023-04-12T05:20:05.965Z,835.00
2023-04-12T05:21:05.925Z,828.00
2023-04-12T05:22:05.978Z,833.00
2023-04-12T05:23:05.939Z,822.00
2023-04-12T05:24:05.891Z,834.00
2023-04-12T05:25:05.894Z,835.00
2023-04-12T05:26:05.905Z,831.00
2023-04-12T05:27:05.890Z,829.00
2023-04-12T05:28:05.910Z,826.00
2023-04-12T05:29:05.920Z,831.00
2023-04-12T05:30:05.874Z,820.00
2023-04-12T05:31:05.953Z,835.00
2023-04-12T05:32:05.871Z,826.00
2023-04-12T05:33:06.018Z,834.00
2023-04-12T05:34:05.858Z,836.00
2023-04-12T05:35:05.865Z,827.00
2023-04-12T05:36:05.898Z,785.00
2023-04-12T05:37:05.837Z,778.00
2023-04-12T05:38:05.855Z,757.00
2023-04-12T05:39:05.954Z,746.00
2023-04-12T05:40:05.863Z,759.00
2023-04-12T05:41:05.894Z,743.00
2023-04-12T05:42:05.950Z,702.00
2023-04-12T05:43:06.015Z,692.00
2023-04-12T05:44:06.089Z,687.00
2023-04-12T05:45:06.051Z,657.00
2023-04-12T05:46:06.114Z,654.00
2023-04-12T05:47:06.100Z,663.00
2023-04-12T05:48:06.174Z,670.00
2023-04-12T05:49:06.566Z,664.00
2023-04-12T05:50:07.060Z,661.00
2023-04-12T05:51:06.275Z,662.00
2023-04-12T05:52:06.370Z,655.00
2023-04-12T05:53:06.346Z,657.00
2023-04-12T05:54:06.575Z,657.00
2023-04-12T05:55:06.460Z,668.00
2023-04-12T05:56:06.339Z,684.00
2023-04-12T05:57:06.438Z,700.00
2023-04-12T05:58:06.542Z,699.00
2023-04-12T05:59:06.544Z,710.00
2023-04-12T06:00:06.568Z,729.00
2023-04-12T06:01:06.671Z,756.00
2023-04-12T06:02:06.787Z,767.00
2023-04-12T06:03:06.835Z,759.00
2023-04-12T06:04:06.963Z,770.00
2023-04-12T06:05:06.992Z,768.00
2023-04-12T06:06:06.910Z,795.00
2023-04-12T06:07:07.077Z,824.00
2023-04-12T06:08:06.995Z,819.00
2023-04-12T06:09:07.032Z,834.00
2023-04-12T06:10:07.048Z,839.00
2023-04-12T06:11:07.062Z,860.00
2023-04-12T06:12:07.077Z,870.00
2023-04-12T06:13:07.078Z,875.00
2023-04-12T06:14:07.155Z,875.00
2023-04-12T06:15:07.170Z,882.00
2023-04-12T06:16:07.234Z,884.00
2023-04-12T06:17:07.186Z,889.00
2023-04-12T06:18:07.195Z,895.00
2023-04-12T06:19:07.244Z,889.00
2023-04-12T06:20:07.209Z,894.00
2023-04-12T06:21:07.197Z,889.00
2023-04-12T06:22:07.223Z,911.00
2023-04-12T06:23:07.257Z,922.00
2023-04-12T06:24:07.335Z,923.00
2023-04-12T06:25:07.276Z,928.00
2023-04-12T06:26:07.301Z,938.00
2023-04-12T06:27:07.255Z,927.00
2023-04-12T06:28:07.245Z,928.00
2023-04-12T06:29:07.264Z,952.00
2023-04-12T06:30:07.262Z,958.00
2023-04-12T06:31:07.338Z,933.00
2023-04-12T06:32:07.239Z,959.00
2023-04-12T06:33:07.313Z,963.00
2023-04-12T06:34:07.298Z,950.00
2023-04-12T06:35:07.227Z,963.00
2023-04-12T06:36:07.279Z,961.00
2023-04-12T06:37:07.236Z,969.00
2023-04-12T06:38:07.241Z,963.00
2023-04-12T06:39:07.420Z,911.00
2023-04-12T06:40:07.300Z,883.00
2023-04-12T06:41:07.336Z,862.00
2023-04-12T06:42:08.082Z,879.00
2023-04-12T06:43:07.373Z,860.00
2023-04-12T06:44:07.377Z,851.00
2023-04-12T06:45:07.438Z,811.00
2023-04-12T06:46:07.430Z,835.00
2023-04-12T06:47:07.520Z,781.00
2023-04-12T06:48:07.524Z,770.00
2023-04-12T06:49:07.492Z,793.00
2023-04-12T06:50:07.497Z,740.00
2023-04-12T06:51:07.581Z,740.00
2023-04-12T06:52:07.671Z,744.00
2023-04-12T06:53:07.664Z,756.00
2023-04-12T06:54:07.753Z,754.00
2023-04-12T06:55:07.768Z,770.00
2023-04-12T06:56:07.829Z,775.00
2023-04-12T06:57:07.992Z,776.00
2023-04-12T06:58:07.926Z,781.00
2023-04-12T06:59:07.969Z,795.00
2023-04-12T07:00:08.068Z,782.00
2023-04-12T07:01:08.118Z,791.00
2023-04-12T07:02:08.108Z,800.00
2023-04-12T07:03:08.156Z,807.00
2023-04-12T07:04:08.138Z,814.00
2023-04-12T07:05:08.118Z,824.00
2023-04-12T07:06:23.707Z,837.00
2023-04-12T07:07:09.153Z,838.00
2023-04-12T07:08:08.121Z,841.00
2023-04-12T07:09:08.131Z,847.00
2023-04-12T07:10:08.114Z,856.00
2023-04-12T07:11:20.038Z,877.00
2023-04-12T07:12:09.096Z,840.00
2023-04-12T07:13:08.119Z,846.00
2023-04-12T07:14:08.104Z,859.00
2023-04-12T07:15:08.127Z,872.00
2023-04-12T07:16:08.257Z,898.00
2023-04-12T07:17:08.089Z,901.00
2023-04-12T07:18:08.094Z,905.00
2023-04-12T07:19:08.118Z,920.00
2023-04-12T07:20:08.123Z,911.00
2023-04-12T07:21:08.053Z,906.00
2023-04-12T07:22:08.059Z,936.00
2023-04-12T07:23:08.153Z,932.00
2023-04-12T07:24:08.031Z,920.00
2023-04-12T07:25:08.034Z,924.00
2023-04-12T07:26:08.073Z,942.00
2023-04-12T07:27:07.982Z,938.00
2023-04-12T07:28:09.154Z,942.00
2023-04-12T07:29:08.001Z,957.00
2023-04-12T07:30:07.965Z,955.00
2023-04-12T07:31:08.034Z,950.00
2023-04-12T07:32:07.980Z,959.00
2023-04-12T07:33:18.369Z,970.00
2023-04-12T07:34:09.055Z,971.00
2023-04-12T07:35:07.951Z,970.00
2023-04-12T07:36:07.966Z,953.00
2023-04-12T07:37:07.971Z,926.00
2023-04-12T07:38:07.978Z,900.00
2023-04-12T07:39:07.922Z,924.00
2023-04-12T07:40:07.938Z,943.00
2023-04-12T07:41:07.902Z,973.00
2023-04-12T07:42:07.973Z,968.00
2023-04-12T07:43:07.903Z,965.00
2023-04-12T07:44:07.904Z,951.00
2023-04-12T07:45:07.866Z,970.00
2023-04-12T07:46:07.917Z,973.00
2023-04-12T07:47:07.904Z,977.00
2023-04-12T07:48:07.910Z,954.00
2023-04-12T07:49:07.897Z,984.00
2023-04-12T07:50:07.837Z,977.00
2023-04-12T07:51:07.848Z,999.00
2023-04-12T07:52:07.866Z,990.00
2023-04-12T07:53:07.925Z,994.00
2023-04-12T07:54:07.937Z,991.00
2023-04-12T07:55:07.950Z,1014.00
2023-04-12T07:56:08.099Z,1001.00
2023-04-12T07:57:08.081Z,1021.00
2023-04-12T07:58:08.158Z,994.00
2023-04-12T07:59:08.199Z,1019.00
2023-04-12T08:00:08.276Z,1022.00
2023-04-12T08:01:08.290Z,1032.00
2023-04-12T08:02:08.580Z,1048.00
2023-04-12T08:03:08.500Z,1055.00
2023-04-12T08:04:08.529Z,1075.00
2023-04-12T08:05:08.403Z,1096.00
2023-04-12T08:06:08.535Z,1104.00
2023-04-12T08:07:08.460Z,1089.00
2023-04-12T08:08:08.471Z,1108.00
2023-04-12T08:09:08.541Z,1110.00
2023-04-12T08:10:09.031Z,1115.00
2023-04-12T08:11:08.601Z,1133.00
2023-04-12T08:12:08.558Z,1136.00
2023-04-12T08:13:08.607Z,1124.00
2023-04-12T08:14:08.606Z,1132.00
2023-04-12T08:15:08.606Z,1140.00
2023-04-12T08:16:08.653Z,1133.00
2023-04-12T08:17:08.664Z,1130.00
2023-04-12T08:18:08.670Z,1147.00
2023-04-12T08:19:08.649Z,1138.00
2023-04-12T08:20:08.663Z,1148.00
2023-04-12T08:21:08.669Z,1149.00
2023-04-12T08:22:08.647Z,1127.00
2023-04-12T08:23:08.678Z,1162.00
2023-04-12T08:24:08.689Z,1162.00
2023-04-12T08:25:08.687Z,1164.00
2023-04-12T08:26:08.695Z,1089.00
2023-04-12T08:27:08.696Z,1139.00
2023-04-12T08:28:08.707Z,1119.00
2023-04-12T08:29:08.732Z,1124.00
2023-04-12T08:30:08.739Z,1059.00
2023-04-12T08:31:08.818Z,1029.00
2023-04-12T08:32:08.785Z,985.00
2023-04-12T08:33:08.838Z,933.00
2023-04-12T08:34:08.910Z,942.00
2023-04-12T08:35:08.951Z,892.00
2023-04-12T08:36:09.114Z,842.00
2023-04-12T08:37:09.058Z,816.00
2023-04-12T08:38:09.087Z,753.00
2023-04-12T08:39:09.110Z,743.00
2023-04-12T08:40:09.127Z,733.00
2023-04-12T08:41:09.093Z,671.00
2023-04-12T08:42:09.123Z,657.00
2023-04-12T08:43:09.164Z,747.00
2023-04-12T08:44:09.116Z,758.00
2023-04-12T08:45:09.077Z,824.00
2023-04-12T08:46:09.204Z,827.00
2023-04-12T08:47:09.095Z,888.00
2023-04-12T08:48:09.141Z,894.00
2023-04-12T08:49:09.181Z,908.00
2023-04-12T08:50:09.278Z,942.00
2023-04-12T08:51:09.288Z,984.00
2023-04-12T08:52:09.340Z,1024.00
2023-04-12T08:53:09.446Z,999.00
2023-04-12T08:54:09.469Z,989.00
2023-04-12T08:55:09.523Z,1024.00
2023-04-12T08:56:09.627Z,992.00
2023-04-12T08:57:09.712Z,1004.00
2023-04-12T08:58:09.747Z,1016.00
2023-04-12T08:59:09.816Z,1013.00
2023-04-12T09:00:09.849Z,1054.00
2023-04-12T09:01:09.854Z,1039.00
2023-04-12T09:02:09.966Z,1063.00
2023-04-12T09:03:10.091Z,1082.00
2023-04-12T09:04:10.383Z,1077.00
2023-04-12T09:05:09.987Z,1079.00
2023-04-12T09:06:09.987Z,1096.00
2023-04-12T09:07:09.976Z,1050.00
2023-04-12T09:08:10.003Z,1066.00
2023-04-12T09:09:10.632Z,1080.00
2023-04-12T09:10:10.013Z,1081.00
2023-04-12T09:11:10.181Z,1112.00
2023-04-12T09:12:10.019Z,1101.00
2023-04-12T09:13:10.056Z,1066.00
2023-04-12T09:14:10.067Z,1049.00
2023-04-12T09:15:10.044Z,1069.00
2023-04-12T09:16:10.124Z,1097.00
2023-04-12T09:17:10.149Z,1054.00
2023-04-12T09:18:10.240Z,1111.00
2023-04-12T09:19:10.106Z,1109.00
2023-04-12T09:20:10.040Z,1118.00
2023-04-12T09:21:10.044Z,1076.00
2023-04-12T09:22:10.071Z,1109.00
2023-04-12T09:23:10.065Z,1149.00
2023-04-12T09:24:12.622Z,1130.00
2023-04-12T09:25:11.103Z,1130.00
2023-04-12T09:26:10.083Z,1128.00
2023-04-12T09:27:10.041Z,1065.00
2023-04-12T09:28:10.040Z,1110.00
2023-04-12T09:29:10.036Z,1117.00
2023-04-12T09:30:10.043Z,1085.00
2023-04-12T09:31:10.073Z,1079.00
2023-04-12T09:32:10.008Z,1079.00
2023-04-12T09:33:10.044Z,1067.00
2023-04-12T09:34:10.038Z,1096.00
2023-04-12T09:35:10.078Z,1048.00
2023-04-12T09:36:10.208Z,1134.00
2023-04-12T09:37:10.162Z,1095.00
2023-04-12T09:38:10.255Z,1150.00
2023-04-12T09:39:10.776Z,1178.00
2023-04-12T09:40:10.319Z,1211.00
2023-04-12T09:41:10.399Z,1216.00
2023-04-12T09:42:21.516Z,1219.00
2023-04-12T09:43:11.416Z,1219.00
2023-04-12T09:44:10.734Z,1223.00
2023-04-12T09:45:10.374Z,1226.00
2023-04-12T09:46:10.488Z,1231.00
2023-04-12T09:47:10.390Z,1236.00
2023-04-12T09:48:10.470Z,1220.00
2023-04-12T09:49:10.680Z,1119.00
2023-04-12T09:50:10.410Z,1189.00
2023-04-12T09:51:10.372Z,1172.00
2023-04-12T09:52:10.374Z,1155.00
2023-04-12T09:53:10.473Z,1125.00
2023-04-12T09:54:10.515Z,1103.00
2023-04-12T09:55:10.728Z,1139.00
2023-04-12T09:56:10.614Z,1155.00
2023-04-12T09:57:10.690Z,1153.00
2023-04-12T09:58:10.768Z,1157.00
2023-04-12T09:59:11.663Z,1163.00
2023-04-12T10:00:10.926Z,1153.00
2023-04-12T10:01:10.946Z,1169.00
2023-04-12T10:02:11.093Z,1170.00
2023-04-12T10:03:11.489Z,1170.00
2023-04-12T10:04:11.256Z,1183.00
2023-04-12T10:05:11.302Z,1214.00
2023-04-12T10:06:11.263Z,1211.00
2023-04-12T10:07:13.212Z,1216.00
2023-04-12T10:08:11.309Z,1253.00
2023-04-12T10:09:11.286Z,1256.00
2023-04-12T10:10:11.304Z,1269.00
2023-04-12T10:11:11.251Z,1228.00
2023-04-12T10:12:11.240Z,1295.00
2023-04-12T10:13:11.336Z,1300.00
2023-04-12T10:14:11.262Z,1289.00
2023-04-12T10:15:11.283Z,1252.00
2023-04-12T10:16:11.355Z,1259.00
2023-04-12T10:17:11.241Z,1246.00
2023-04-12T10:18:11.371Z,1244.00
2023-04-12T10:19:11.272Z,1226.00
2023-04-12T10:20:11.228Z,1245.00
2023-04-12T10:21:11.262Z,1183.00
2023-04-12T10:22:11.214Z,1215.00
2023-04-12T10:23:11.214Z,1242.00
2023-04-12T10:24:11.710Z,1252.00
2023-04-12T10:25:11.202Z,1193.00
2023-04-12T10:26:11.202Z,1095.00
2023-04-12T10:27:11.178Z,1164.00
2023-04-12T10:28:11.216Z,1090.00
2023-04-12T10:29:11.149Z,1117.00
2023-04-12T10:30:11.168Z,1118.00
2023-04-12T10:31:11.287Z,1097.00
2023-04-12T10:32:11.243Z,1120.00
2023-04-12T10:33:11.223Z,1152.00
2023-04-12T10:34:11.164Z,1128.00
2023-04-12T10:35:11.119Z,1105.00
2023-04-12T10:36:11.399Z,1147.00
2023-04-12T10:37:11.120Z,1145.00
2023-04-12T10:38:11.107Z,1159.00
2023-04-12T10:39:11.126Z,1109.00
2023-04-12T10:40:11.112Z,1101.00
2023-04-12T10:41:11.131Z,1102.00
2023-04-12T10:42:11.101Z,1121.00
2023-04-12T10:43:11.083Z,1102.00
2023-04-12T10:44:11.051Z,1111.00
2023-04-12T10:45:11.071Z,1087.00
2023-04-12T10:46:11.089Z,1060.00
2023-04-12T10:47:11.099Z,1075.00
2023-04-12T10:48:11.108Z,1135.00
2023-04-12T10:49:11.031Z,1148.00
2023-04-12T10:50:11.132Z,1161.00
2023-04-12T10:51:11.116Z,1163.00
2023-04-12T10:52:11.167Z,1152.00
2023-04-12T10:53:11.270Z,1142.00
2023-04-12T10:54:11.256Z,1154.00
2023-04-12T10:55:11.344Z,1068.00
2023-04-12T10:56:11.404Z,1107.00
2023-04-12T10:57:11.370Z,1151.00
2023-04-12T10:58:11.432Z,1169.00
2023-04-12T10:59:11.484Z,1174.00
2023-04-12T11:00:11.546Z,1171.00
2023-04-12T11:01:11.843Z,1175.00
2023-04-12T11:02:11.869Z,1165.00
2023-04-12T11:03:11.921Z,1116.00
2023-04-12T11:04:11.892Z,1124.00
2023-04-12T11:05:11.983Z,1093.00
2023-04-12T11:06:26.622Z,1105.00
2023-04-12T11:07:12.776Z,1107.00
2023-04-12T11:08:11.860Z,1103.00
2023-04-12T11:09:11.733Z,1126.00
2023-04-12T11:10:11.728Z,1200.00
2023-04-12T11:11:11.765Z,1277.00
2023-04-12T11:12:11.720Z,1290.00
2023-04-12T11:13:11.725Z,1234.00
2023-04-12T11:14:11.701Z,1226.00
2023-04-12T11:15:11.725Z,1192.00
2023-04-12T11:16:11.759Z,1160.00
2023-04-12T11:17:11.753Z,1173.00
2023-04-12T11:18:11.796Z,1119.00
2023-04-12T11:19:11.737Z,1088.00
2023-04-12T11:20:11.826Z,1056.00
2023-04-12T11:21:11.875Z,1047.00
2023-04-12T11:22:11.957Z,1057.00
2023-04-12T11:23:11.979Z,1075.00
2023-04-12T11:24:12.031Z,1074.00
2023-04-12T11:25:12.065Z,1010.00
2023-04-12T11:26:12.216Z,1015.00
2023-04-12T11:27:12.159Z,966.00
2023-04-12T11:28:27.429Z,945.00
2023-04-12T11:29:13.233Z,946.00
2023-04-12T11:30:12.289Z,950.00
2023-04-12T11:31:12.227Z,945.00
2023-04-12T11:32:12.282Z,923.00
2023-04-12T11:33:12.363Z,926.00
2023-04-12T11:34:15.369Z,894.00
2023-04-12T11:35:12.172Z,895.00
2023-04-12T11:36:12.193Z,897.00
2023-04-12T11:37:12.151Z,810.00
2023-04-12T11:38:12.164Z,823.00
2023-04-12T11:39:12.161Z,819.00
2023-04-12T11:40:12.267Z,781.00
2023-04-12T11:41:12.137Z,749.00
2023-04-12T11:42:12.137Z,829.00
2023-04-12T11:43:12.137Z,821.00
2023-04-12T11:44:12.099Z,788.00
2023-04-12T11:45:17.166Z,702.00
2023-04-12T11:46:13.156Z,705.00
2023-04-12T11:47:12.117Z,720.00
2023-04-12T11:48:12.155Z,757.00
2023-04-12T11:49:12.141Z,835.00
2023-04-12T11:50:12.093Z,907.00
2023-04-12T11:51:12.122Z,926.00
2023-04-12T11:52:12.049Z,931.00
2023-04-12T11:53:12.081Z,947.00
2023-04-12T11:54:12.040Z,928.00
2023-04-12T11:55:12.074Z,945.00
2023-04-12T11:56:12.108Z,938.00
2023-04-12T11:57:12.217Z,923.00
2023-04-12T11:58:12.256Z,931.00
2023-04-12T11:59:12.264Z,936.00
2023-04-12T12:00:12.346Z,952.00
2023-04-12T12:01:12.391Z,948.00
2023-04-12T12:02:22.830Z,949.00
2023-04-12T12:03:13.683Z,950.00
2023-04-12T12:04:12.539Z,951.00
2023-04-12T12:05:12.878Z,952.00
2023-04-12T12:06:12.820Z,968.00
2023-04-12T12:07:12.620Z,970.00
2023-04-12T12:08:12.441Z,956.00
2023-04-12T12:09:12.413Z,957.00
2023-04-12T12:10:14.754Z,975.00
2023-04-12T12:11:13.381Z,976.00
2023-04-12T12:12:12.388Z,977.00
2023-04-12T12:13:12.517Z,982.00
2023-04-12T12:14:12.370Z,984.00
2023-04-12T12:15:12.350Z,1007.00
2023-04-12T12:16:12.422Z,999.00